Christian Reinauer — WDA6472 — position and weather

sailwx.info

Track history (hours):
 
Tides and Currents Weather Stations Pressure Air Temp Water Temp Dewpoint Dewpoint Depression Visibility Wind Speed Wind Dir Waves Ship Positions

Christian Reinauer

Owner: REINAUER TRANSPORTATION CO LLC, STATEN ISLAND, NY. More information available from US FCC via Universal Licensing System and Coast Guard Vessel Documentation Center.

Last reported at 2017-Jan-20 04:33 UTC. Time now 2017-Jan-20 20:11 UTC.
Position N 40°51' W 073°45'.

Length 170 m; draft 6.4 m.

Type: Tanker. MMSI: 366832740.

Date/timePositionNaut miles runAvg speedWind from/ knotsBaromVisibWave heightAir tempDewpointWater temp
2017-Jan-20 04:33N 40°51' W 073°45'9 9.5
2017-Jan-20 03:33N 40°47' W 073°56'10 9.6
2017-Jan-20 02:33N 40°39' W 074°04'6 5.9
2017-Jan-20 01:33N 40°39' W 074°11'1 1.0
2017-Jan-20 00:31N 40°38' W 074°12'0 0.0
2017-Jan-19 23:31N 40°38' W 074°12'0 0.0
2017-Jan-19 22:28N 40°38' W 074°12'0 0.0
2017-Jan-19 21:31N 40°38' W 074°12'0 0.0
2017-Jan-19 20:28N 40°38' W 074°12'0 0.0
2017-Jan-19 19:31N 40°38' W 074°12'0 0.0
2017-Jan-19 18:31N 40°38' W 074°12'0 0.0
2017-Jan-19 17:31N 40°38' W 074°12'0 0.0
2017-Jan-19 16:31N 40°38' W 074°12'0 0.0
2017-Jan-19 15:31N 40°38' W 074°12'0 0.0
2017-Jan-19 14:31N 40°38' W 074°12'0 0.0
2017-Jan-19 13:31N 40°38' W 074°12'0 0.0
2017-Jan-19 12:31N 40°38' W 074°12'0 0.0
2017-Jan-19 11:31N 40°38' W 074°12'0 0.0
2017-Jan-19 10:31N 40°38' W 074°12'0 0.0
2017-Jan-19 09:31N 40°38' W 074°12'0 0.0
2017-Jan-19 08:31N 40°38' W 074°12'0 0.0
2017-Jan-19 07:31N 40°38' W 074°12'0 0.0
2017-Jan-19 06:31N 40°38' W 074°12'0 0.0
2017-Jan-19 05:31N 40°38' W 074°12'0 0.0
2017-Jan-19 04:25N 40°38' W 074°12'0 0.0
2017-Jan-19 03:31N 40°38' W 074°12'0 0.0
2017-Jan-19 02:28N 40°38' W 074°12'0 0.0
2017-Jan-19 01:31N 40°38' W 074°12'0 0.0
2017-Jan-19 00:31N 40°38' W 074°12'0 0.0
2017-Jan-18 23:31N 40°38' W 074°12'0 0.0
2017-Jan-18 22:31N 40°38' W 074°12'0 0.0
2017-Jan-18 21:31N 40°38' W 074°12'0 0.0
2017-Jan-18 20:31N 40°38' W 074°12'0 0.0
2017-Jan-18 19:31N 40°38' W 074°12'0 0.0
2017-Jan-18 18:31N 40°38' W 074°12'0 0.0
2017-Jan-18 17:31N 40°38' W 074°12'0 0.0
2017-Jan-18 16:33N 40°38' W 074°12'0 0.0
2017-Jan-18 15:33N 40°38' W 074°12'0 0.0
2017-Jan-18 14:33N 40°38' W 074°12'0 0.0
2017-Jan-18 13:33N 40°38' W 074°12'0 0.0
2017-Jan-18 12:33N 40°38' W 074°12'0 0.0
2017-Jan-18 11:33N 40°38' W 074°12'0 0.0
2017-Jan-18 10:33N 40°38' W 074°12'0 0.0
2017-Jan-18 09:33N 40°38' W 074°12'0 0.0
2017-Jan-18 08:33N 40°38' W 074°12'0 0.0
2017-Jan-18 07:33N 40°38' W 074°12'0 0.0
2017-Jan-18 06:33N 40°38' W 074°12'0 0.0
2017-Jan-18 05:33N 40°38' W 074°12'3 2.8
2017-Jan-18 04:33N 40°39' W 074°09'6 6.2
2017-Jan-18 03:32N 40°35' W 074°01'0 0.0
2017-Jan-18 02:32N 40°35' W 074°01'0 0.2
2017-Jan-18 01:32N 40°35' W 074°01'0 0.0
2017-Jan-18 00:32N 40°35' W 074°01'0 0.0
2017-Jan-17 23:32N 40°35' W 074°01'0 0.0
2017-Jan-17 22:32N 40°35' W 074°01'0 0.0
2017-Jan-17 21:32N 40°35' W 074°01'0 0.0
2017-Jan-17 20:31N 40°35' W 074°01'0 0.0
2017-Jan-17 19:31N 40°35' W 074°01'0 0.0
2017-Jan-17 18:31N 40°35' W 074°01'0 0.1
2017-Jan-17 17:31N 40°35' W 074°01'0 0.1
2017-Jan-17 16:31N 40°35' W 074°01'0 0.0
2017-Jan-17 15:31N 40°35' W 074°01'0 0.0
2017-Jan-17 14:25N 40°35' W 074°01'0 0.0
2017-Jan-17 13:31N 40°35' W 074°01'0 0.2
2017-Jan-17 12:31N 40°35' W 074°01'0 0.0
2017-Jan-17 11:31N 40°35' W 074°01'0 0.0
2017-Jan-17 10:31N 40°35' W 074°01'0 0.0
2017-Jan-17 09:31N 40°35' W 074°01'0 0.0
2017-Jan-17 08:31N 40°35' W 074°01'0 0.1
2017-Jan-17 07:33N 40°35' W 074°01'4 3.5
2017-Jan-17 06:33N 40°38' W 074°04'7 6.7
2017-Jan-17 05:33N 40°36' W 074°12'4 4.2
2017-Jan-17 04:33N 40°33' W 074°15'0 0.0
2017-Jan-17 03:30N 40°33' W 074°15'0 0.0
2017-Jan-17 02:30N 40°33' W 074°15'0 0.0
2017-Jan-17 01:30N 40°33' W 074°15'0 0.0
2017-Jan-17 00:30N 40°33' W 074°15'0 0.0
2017-Jan-16 23:15N 40°33' W 074°15'0 0.0
2017-Jan-16 22:30N 40°33' W 074°15'2 1.7
2017-Jan-16 21:33N 40°31' W 074°15'8 7.5
2017-Jan-16 20:31N 40°29' W 074°05'9 8.9
2017-Jan-16 19:32N 40°27' W 073°54'8 8.1
2017-Jan-16 18:32N 40°30' W 073°44'12310.1
2017-Jan-16 06:22N 41°29' W 071°21'1012.1
2017-Jan-16 05:33N 41°38' W 071°18'10 9.9
2017-Jan-16 04:33N 41°47' W 071°23'1 1.1
2017-Jan-16 03:33N 41°48' W 071°24'0 0.0
2017-Jan-16 02:30N 41°48' W 071°24'0 0.0
2017-Jan-16 01:30N 41°48' W 071°24'0 0.0
2017-Jan-16 00:30N 41°48' W 071°24'0 0.0
2017-Jan-15 23:30N 41°48' W 071°24'0 0.0
2017-Jan-15 22:30N 41°48' W 071°24'0 0.0
2017-Jan-15 21:13N 41°48' W 071°24'0 0.0
2017-Jan-15 20:31N 41°48' W 071°24'0 0.0
2017-Jan-15 19:30N 41°48' W 071°24'0 0.0
2017-Jan-15 18:30N 41°48' W 071°24'0 0.0
2017-Jan-15 17:30N 41°48' W 071°24'0 0.0
2017-Jan-15 16:18N 41°48' W 071°24'0 0.0
2017-Jan-15 15:30N 41°48' W 071°24'0 0.0
2017-Jan-15 14:18N 41°48' W 071°24'0 0.0
2017-Jan-15 13:31N 41°48' W 071°24'0 0.0
2017-Jan-15 12:24N 41°48' W 071°24'0 0.0
2017-Jan-15 11:24N 41°48' W 071°24'0 0.0
2017-Jan-15 10:33N 41°48' W 071°24'3 2.6
2017-Jan-15 09:32N 41°46' W 071°23'3 3.5
2017-Jan-15 08:33N 41°43' W 071°20'6 5.8
2017-Jan-15 07:33N 41°37' W 071°18'10 9.9
2017-Jan-15 06:29N 41°27' W 071°23'124 9.5
2017-Jan-14 17:29N 40°30' W 073°48'9 9.1
2017-Jan-14 16:33N 40°31' W 073°59'1010.0
2017-Jan-14 15:33N 40°39' W 074°07'6 5.8
2017-Jan-14 14:33N 40°35' W 074°12'3 2.9
2017-Jan-14 13:26N 40°33' W 074°15'0 0.0
2017-Jan-14 10:33N 40°32' W 074°15'0 0.2
2017-Jan-14 09:31N 40°33' W 074°15'6 5.9
2017-Jan-14 08:33N 40°38' W 074°12'3 3.4
2017-Jan-14 07:33N 40°38' W 074°08'0 0.0
2017-Jan-14 06:33N 40°38' W 074°08'0 0.0
2017-Jan-14 05:33N 40°38' W 074°08'0 0.0
2017-Jan-14 04:33N 40°38' W 074°08'0 0.0
2017-Jan-14 03:33N 40°38' W 074°08'0 0.0
2017-Jan-13 23:32N 40°38' W 074°08'0 0.0
2017-Jan-13 22:32N 40°38' W 074°08'0 0.0
2017-Jan-13 21:32N 40°38' W 074°08'0 0.0
2017-Jan-13 20:32N 40°38' W 074°08'0 0.0
2017-Jan-13 19:33N 40°38' W 074°08'0 0.1
2017-Jan-13 18:34N 40°38' W 074°08'1 1.0
2017-Jan-13 17:33N 40°39' W 074°09'1 1.0
2017-Jan-13 16:33N 40°38' W 074°08'0 0.0
2017-Jan-13 15:33N 40°38' W 074°08'0 0.0
2017-Jan-13 14:30N 40°38' W 074°08'0 0.0
2017-Jan-13 13:33N 40°38' W 074°08'0 0.0
2017-Jan-13 12:33N 40°38' W 074°08'0 0.0
2017-Jan-13 11:30N 40°38' W 074°08'0 0.0
2017-Jan-13 10:33N 40°38' W 074°08'0 0.0
2017-Jan-13 09:33N 40°38' W 074°08'0 0.0
2017-Jan-13 08:33N 40°38' W 074°08'0 0.0
2017-Jan-13 07:33N 40°38' W 074°08'0 0.0
2017-Jan-13 06:33N 40°38' W 074°08'0 0.0
2017-Jan-13 05:30N 40°38' W 074°08'0 0.2
2017-Jan-13 04:34N 40°39' W 074°07'4 4.4
2017-Jan-13 03:34N 40°40' W 074°02'0 0.2
2017-Jan-13 02:34N 40°40' W 074°02'0 0.0
2017-Jan-13 01:34N 40°40' W 074°02'0 0.0
2017-Jan-13 00:34N 40°40' W 074°02'0 0.0
2017-Jan-12 23:34N 40°40' W 074°02'0 0.0
2017-Jan-12 22:33N 40°40' W 074°02'0 0.1
2017-Jan-12 21:34N 40°40' W 074°02'0 0.0
2017-Jan-12 20:34N 40°40' W 074°02'0 0.1
2017-Jan-12 19:33N 40°40' W 074°02'0 0.0
2017-Jan-12 18:34N 40°40' W 074°02'0 0.0
2017-Jan-12 17:34N 40°40' W 074°02'0 0.0
2017-Jan-12 16:34N 40°40' W 074°02'0 0.0
2017-Jan-12 15:34N 40°40' W 074°02'0 0.1
2017-Jan-12 14:34N 40°40' W 074°02'0 0.1
2017-Jan-12 13:33N 40°40' W 074°02'0 0.0
2017-Jan-12 12:34N 40°40' W 074°02'4 4.4
2017-Jan-12 11:34N 40°43' W 073°58'6 6.1
2017-Jan-12 10:32N 40°48' W 073°53'8 8.4
2017-Jan-12 09:33N 40°53' W 073°44'  
Track history (hours):
 
Tides and Currents Weather Stations Pressure Air Temp Water Temp Dewpoint Dewpoint Depression Visibility Wind Speed Wind Dir Waves Ship Positions

Christian Reinauer

Owner: REINAUER TRANSPORTATION CO LLC, STATEN ISLAND, NY. More information available from US FCC via Universal Licensing System and Coast Guard Vessel Documentation Center.

Last reported at 2017-Jan-20 04:33 UTC. Time now 2017-Jan-20 20:11 UTC.
Position N 40°51' W 073°45'.

Length 170 m; draft 6.4 m.

Type: Tanker. MMSI: 366832740.

Date/timePositionNaut miles runAvg speedWind from/ knotsBaromVisibWave heightAir tempDewpointWater temp
2017-Jan-20 04:33N 40°51' W 073°45'9 9.5
2017-Jan-20 03:33N 40°47' W 073°56'10 9.6
2017-Jan-20 02:33N 40°39' W 074°04'6 5.9
2017-Jan-20 01:33N 40°39' W 074°11'1 1.0
2017-Jan-20 00:31N 40°38' W 074°12'0 0.0
2017-Jan-19 23:31N 40°38' W 074°12'0 0.0
2017-Jan-19 22:28N 40°38' W 074°12'0 0.0
2017-Jan-19 21:31N 40°38' W 074°12'0 0.0
2017-Jan-19 20:28N 40°38' W 074°12'0 0.0
2017-Jan-19 19:31N 40°38' W 074°12'0 0.0
2017-Jan-19 18:31N 40°38' W 074°12'0 0.0
2017-Jan-19 17:31N 40°38' W 074°12'0 0.0
2017-Jan-19 16:31N 40°38' W 074°12'0 0.0
2017-Jan-19 15:31N 40°38' W 074°12'0 0.0
2017-Jan-19 14:31N 40°38' W 074°12'0 0.0
2017-Jan-19 13:31N 40°38' W 074°12'0 0.0
2017-Jan-19 12:31N 40°38' W 074°12'0 0.0
2017-Jan-19 11:31N 40°38' W 074°12'0 0.0
2017-Jan-19 10:31N 40°38' W 074°12'0 0.0
2017-Jan-19 09:31N 40°38' W 074°12'0 0.0
2017-Jan-19 08:31N 40°38' W 074°12'0 0.0
2017-Jan-19 07:31N 40°38' W 074°12'0 0.0
2017-Jan-19 06:31N 40°38' W 074°12'0 0.0
2017-Jan-19 05:31N 40°38' W 074°12'0 0.0
2017-Jan-19 04:25N 40°38' W 074°12'0 0.0
2017-Jan-19 03:31N 40°38' W 074°12'0 0.0
2017-Jan-19 02:28N 40°38' W 074°12'0 0.0
2017-Jan-19 01:31N 40°38' W 074°12'0 0.0
2017-Jan-19 00:31N 40°38' W 074°12'0 0.0
2017-Jan-18 23:31N 40°38' W 074°12'0 0.0
2017-Jan-18 22:31N 40°38' W 074°12'0 0.0
2017-Jan-18 21:31N 40°38' W 074°12'0 0.0
2017-Jan-18 20:31N 40°38' W 074°12'0 0.0
2017-Jan-18 19:31N 40°38' W 074°12'0 0.0
2017-Jan-18 18:31N 40°38' W 074°12'0 0.0
2017-Jan-18 17:31N 40°38' W 074°12'0 0.0
2017-Jan-18 16:33N 40°38' W 074°12'0 0.0
2017-Jan-18 15:33N 40°38' W 074°12'0 0.0
2017-Jan-18 14:33N 40°38' W 074°12'0 0.0
2017-Jan-18 13:33N 40°38' W 074°12'0 0.0
2017-Jan-18 12:33N 40°38' W 074°12'0 0.0
2017-Jan-18 11:33N 40°38' W 074°12'0 0.0
2017-Jan-18 10:33N 40°38' W 074°12'0 0.0
2017-Jan-18 09:33N 40°38' W 074°12'0 0.0
2017-Jan-18 08:33N 40°38' W 074°12'0 0.0
2017-Jan-18 07:33N 40°38' W 074°12'0 0.0
2017-Jan-18 06:33N 40°38' W 074°12'0 0.0
2017-Jan-18 05:33N 40°38' W 074°12'3 2.8
2017-Jan-18 04:33N 40°39' W 074°09'6 6.2
2017-Jan-18 03:32N 40°35' W 074°01'0 0.0
2017-Jan-18 02:32N 40°35' W 074°01'0 0.2
2017-Jan-18 01:32N 40°35' W 074°01'0 0.0
2017-Jan-18 00:32N 40°35' W 074°01'0 0.0
2017-Jan-17 23:32N 40°35' W 074°01'0 0.0
2017-Jan-17 22:32N 40°35' W 074°01'0 0.0
2017-Jan-17 21:32N 40°35' W 074°01'0 0.0
2017-Jan-17 20:31N 40°35' W 074°01'0 0.0
2017-Jan-17 19:31N 40°35' W 074°01'0 0.0
2017-Jan-17 18:31N 40°35' W 074°01'0 0.1
2017-Jan-17 17:31N 40°35' W 074°01'0 0.1
2017-Jan-17 16:31N 40°35' W 074°01'0 0.0
2017-Jan-17 15:31N 40°35' W 074°01'0 0.0
2017-Jan-17 14:25N 40°35' W 074°01'0 0.0
2017-Jan-17 13:31N 40°35' W 074°01'0 0.2
2017-Jan-17 12:31N 40°35' W 074°01'0 0.0
2017-Jan-17 11:31N 40°35' W 074°01'0 0.0
2017-Jan-17 10:31N 40°35' W 074°01'0 0.0
2017-Jan-17 09:31N 40°35' W 074°01'0 0.0
2017-Jan-17 08:31N 40°35' W 074°01'0 0.1
2017-Jan-17 07:33N 40°35' W 074°01'4 3.5
2017-Jan-17 06:33N 40°38' W 074°04'7 6.7
2017-Jan-17 05:33N 40°36' W 074°12'4 4.2
2017-Jan-17 04:33N 40°33' W 074°15'0 0.0
2017-Jan-17 03:30N 40°33' W 074°15'0 0.0
2017-Jan-17 02:30N 40°33' W 074°15'0 0.0
2017-Jan-17 01:30N 40°33' W 074°15'0 0.0
2017-Jan-17 00:30N 40°33' W 074°15'0 0.0
2017-Jan-16 23:15N 40°33' W 074°15'0 0.0
2017-Jan-16 22:30N 40°33' W 074°15'2 1.7
2017-Jan-16 21:33N 40°31' W 074°15'8 7.5
2017-Jan-16 20:31N 40°29' W 074°05'9 8.9
2017-Jan-16 19:32N 40°27' W 073°54'8 8.1
2017-Jan-16 18:32N 40°30' W 073°44'12310.1
2017-Jan-16 06:22N 41°29' W 071°21'1012.1
2017-Jan-16 05:33N 41°38' W 071°18'10 9.9
2017-Jan-16 04:33N 41°47' W 071°23'1 1.1
2017-Jan-16 03:33N 41°48' W 071°24'0 0.0
2017-Jan-16 02:30N 41°48' W 071°24'0 0.0
2017-Jan-16 01:30N 41°48' W 071°24'0 0.0
2017-Jan-16 00:30N 41°48' W 071°24'0 0.0
2017-Jan-15 23:30N 41°48' W 071°24'0 0.0
2017-Jan-15 22:30N 41°48' W 071°24'0 0.0
2017-Jan-15 21:13N 41°48' W 071°24'0 0.0
2017-Jan-15 20:31N 41°48' W 071°24'0 0.0
2017-Jan-15 19:30N 41°48' W 071°24'0 0.0
2017-Jan-15 18:30N 41°48' W 071°24'0 0.0
2017-Jan-15 17:30N 41°48' W 071°24'0 0.0
2017-Jan-15 16:18N 41°48' W 071°24'0 0.0
2017-Jan-15 15:30N 41°48' W 071°24'0 0.0
2017-Jan-15 14:18N 41°48' W 071°24'0 0.0
2017-Jan-15 13:31N 41°48' W 071°24'0 0.0
2017-Jan-15 12:24N 41°48' W 071°24'0 0.0
2017-Jan-15 11:24N 41°48' W 071°24'0 0.0
2017-Jan-15 10:33N 41°48' W 071°24'3 2.6
2017-Jan-15 09:32N 41°46' W 071°23'3 3.5
2017-Jan-15 08:33N 41°43' W 071°20'6 5.8
2017-Jan-15 07:33N 41°37' W 071°18'10 9.9
2017-Jan-15 06:29N 41°27' W 071°23'124 9.5
2017-Jan-14 17:29N 40°30' W 073°48'9 9.1
2017-Jan-14 16:33N 40°31' W 073°59'1010.0
2017-Jan-14 15:33N 40°39' W 074°07'6 5.8
2017-Jan-14 14:33N 40°35' W 074°12'3 2.9
2017-Jan-14 13:26N 40°33' W 074°15'0 0.0
2017-Jan-14 10:33N 40°32' W 074°15'0 0.2
2017-Jan-14 09:31N 40°33' W 074°15'6 5.9
2017-Jan-14 08:33N 40°38' W 074°12'3 3.4
2017-Jan-14 07:33N 40°38' W 074°08'0 0.0
2017-Jan-14 06:33N 40°38' W 074°08'0 0.0
2017-Jan-14 05:33N 40°38' W 074°08'0 0.0
2017-Jan-14 04:33N 40°38' W 074°08'0 0.0
2017-Jan-14 03:33N 40°38' W 074°08'0 0.0
2017-Jan-13 23:32N 40°38' W 074°08'0 0.0
2017-Jan-13 22:32N 40°38' W 074°08'0 0.0
2017-Jan-13 21:32N 40°38' W 074°08'0 0.0
2017-Jan-13 20:32N 40°38' W 074°08'0 0.0
2017-Jan-13 19:33N 40°38' W 074°08'0 0.1
2017-Jan-13 18:34N 40°38' W 074°08'1 1.0
2017-Jan-13 17:33N 40°39' W 074°09'1 1.0
2017-Jan-13 16:33N 40°38' W 074°08'0 0.0
2017-Jan-13 15:33N 40°38' W 074°08'0 0.0
2017-Jan-13 14:30N 40°38' W 074°08'0 0.0
2017-Jan-13 13:33N 40°38' W 074°08'0 0.0
2017-Jan-13 12:33N 40°38' W 074°08'0 0.0
2017-Jan-13 11:30N 40°38' W 074°08'0 0.0
2017-Jan-13 10:33N 40°38' W 074°08'0 0.0
2017-Jan-13 09:33N 40°38' W 074°08'0 0.0
2017-Jan-13 08:33N 40°38' W 074°08'0 0.0
2017-Jan-13 07:33N 40°38' W 074°08'0 0.0
2017-Jan-13 06:33N 40°38' W 074°08'0 0.0
2017-Jan-13 05:30N 40°38' W 074°08'0 0.2
2017-Jan-13 04:34N 40°39' W 074°07'4 4.4
2017-Jan-13 03:34N 40°40' W 074°02'0 0.2
2017-Jan-13 02:34N 40°40' W 074°02'0 0.0
2017-Jan-13 01:34N 40°40' W 074°02'0 0.0
2017-Jan-13 00:34N 40°40' W 074°02'0 0.0
2017-Jan-12 23:34N 40°40' W 074°02'0 0.0
2017-Jan-12 22:33N 40°40' W 074°02'0 0.1
2017-Jan-12 21:34N 40°40' W 074°02'0 0.0
2017-Jan-12 20:34N 40°40' W 074°02'0 0.1
2017-Jan-12 19:33N 40°40' W 074°02'0 0.0
2017-Jan-12 18:34N 40°40' W 074°02'0 0.0
2017-Jan-12 17:34N 40°40' W 074°02'0 0.0
2017-Jan-12 16:34N 40°40' W 074°02'0 0.0
2017-Jan-12 15:34N 40°40' W 074°02'0 0.1
2017-Jan-12 14:34N 40°40' W 074°02'0 0.1
2017-Jan-12 13:33N 40°40' W 074°02'0 0.0
2017-Jan-12 12:34N 40°40' W 074°02'4 4.4
2017-Jan-12 11:34N 40°43' W 073°58'6 6.1
2017-Jan-12 10:32N 40°48' W 073°53'8 8.4
2017-Jan-12 09:33N 40°53' W 073°44'  

Dump ship's entire track history